Time;durP1;ratioP1;P1;durP2;ratioP2;P2;SDS_P1;SDS_P2;PMS_P1;PMS_P2;Temp;Humidity;BMP_temperature;BMP_pressure;BME280_temperature;BME280_humidity;BME280_pressure;Samples;Min_cycle;Max_cycle;Signal;HPM_P1;HPM_P2
2023/07/28 04:01:39;;;;;;;0.60;0.10;;;18.30;99.90;;;;;;5593099;22;20534;-77
2023/07/28 04:04:08;;;;;;;0.67;0.47;;;18.30;99.90;;;;;;5013464;28;20945;-77
2023/07/28 04:06:44;;;;;;;0.70;0.37;;;18.00;99.90;;;;;;5014177;28;20486;-75
2023/07/28 04:09:14;;;;;;;0.80;0.47;;;17.90;99.90;;;;;;5013868;28;20926;-76
2023/07/28 04:11:42;;;;;;;0.60;0.20;;;18.00;99.90;;;;;;5000511;28;20503;-76
2023/07/28 04:14:10;;;;;;;2.40;1.20;;;18.00;99.90;;;;;;4994388;28;20445;-76
2023/07/28 04:16:39;;;;;;;0.60;0.10;;;17.90;99.90;;;;;;4994934;28;20943;-77
2023/07/28 04:19:07;;;;;;;1.10;0.20;;;17.90;1.00;;;;;;4994587;28;20451;-77
2023/07/28 04:21:35;;;;;;;0.70;0.20;;;17.90;1.00;;;;;;4999048;28;20495;-76
2023/07/28 04:24:03;;;;;;;0.60;0.20;;;17.90;1.00;;;;;;5019710;28;20525;-76
2023/07/28 04:26:31;;;;;;;0.70;0.30;;;;;;;;;;5020778;28;20899;-75
2023/07/28 04:29:00;;;;;;;1.17;1.03;;;;;;;;;;5023378;28;20455;-75
2023/07/28 04:31:27;;;;;;;0.60;0.10;;;17.90;1.00;;;;;;5022245;22;20536;-78
2023/07/28 04:33:57;;;;;;;0.60;0.20;;;18.00;1.00;;;;;;4993982;28;20526;-77
2023/07/28 04:36:25;;;;;;;0.87;0.30;;;18.00;1.00;;;;;;4995184;28;20526;-77
2023/07/28 04:38:53;;;;;;;1.97;1.03;;;18.00;1.00;;;;;;4995189;28;20545;-78
2023/07/28 04:41:20;;;;;;;2.80;1.20;;;18.00;1.00;;;;;;5007305;28;21059;-78
2023/07/28 04:43:48;;;;;;;0.70;0.40;;;17.90;1.00;;;;;;5014042;28;20493;-78
2023/07/28 04:46:16;;;;;;;0.70;0.20;;;18.00;1.00;;;;;;5001781;28;20508;-78
2023/07/28 04:48:44;;;;;;;0.60;0.10;;;18.00;1.00;;;;;;5033937;28;20560;-78
2023/07/28 04:51:13;;;;;;;0.60;0.47;;;18.10;1.00;;;;;;5031256;28;20491;-78
2023/07/28 04:53:41;;;;;;;0.60;0.30;;;18.10;1.00;;;;;;5012521;28;20444;-78
2023/07/28 04:56:09;;;;;;;0.60;0.10;;;18.20;1.00;;;;;;5013261;28;20544;-78
2023/07/28 04:58:37;;;;;;;0.60;0.30;;;18.20;1.00;;;;;;5013563;28;20451;-78
2023/07/28 05:01:08;;;;;;;0.60;0.20;;;18.20;1.00;;;;;;5012561;28;20554;-78
2023/07/28 05:03:36;;;;;;;0.60;0.10;;;18.20;99.90;;;;;;5012525;28;20488;-78
2023/07/28 05:06:04;;;;;;;0.60;0.10;;;18.20;99.90;;;;;;5013549;28;20485;-78
2023/07/28 05:08:34;;;;;;;0.60;0.10;;;18.30;99.90;;;;;;5016574;28;20536;-75
2023/07/28 05:11:01;;;;;;;0.60;0.10;;;18.30;99.90;;;;;;5022452;28;20557;-76
2023/07/28 05:13:29;;;;;;;0.90;0.30;;;18.30;99.90;;;;;;5019429;28;20442;-79
2023/07/28 05:15:57;;;;;;;0.60;0.30;;;18.30;99.90;;;;;;5014171;28;20459;-79
2023/07/28 05:18:25;;;;;;;0.70;0.60;;;18.40;99.90;;;;;;5014976;28;20526;-78
2023/07/28 05:20:53;;;;;;;0.60;0.10;;;18.40;99.90;;;;;;5012932;28;21008;-77
2023/07/28 05:23:21;;;;;;;1.67;0.90;;;18.40;99.90;;;;;;5002254;28;20546;-78
2023/07/28 05:25:51;;;;;;;0.70;0.40;;;18.30;99.90;;;;;;5025805;28;20446;-79
2023/07/28 05:28:18;;;;;;;2.03;0.60;;;20.30;99.90;;;;;;5020029;28;20513;-78
2023/07/28 05:30:46;;;;;;;0.60;0.10;;;18.30;99.90;;;;;;5036476;28;20475;-78
2023/07/28 05:33:14;;;;;;;0.60;0.10;;;18.40;99.90;;;;;;5034602;28;20446;-78
2023/07/28 05:35:42;;;;;;;0.60;0.20;;;18.50;99.90;;;;;;5033660;28;20449;-78
2023/07/28 05:38:10;;;;;;;0.60;0.20;;;18.60;99.90;;;;;;5033504;28;20448;-78
2023/07/28 05:40:37;;;;;;;1.33;0.70;;;18.50;99.90;;;;;;5033304;28;20569;-78
2023/07/28 05:43:07;;;;;;;1.13;1.07;;;18.50;99.90;;;;;;5017880;28;20526;-77
2023/07/28 05:45:35;;;;;;;1.77;1.67;;;18.50;99.90;;;;;;5012543;28;21019;-78
2023/07/28 05:48:03;;;;;;;0.60;0.20;;;18.50;99.90;;;;;;5012105;28;20538;-78
2023/07/28 05:50:31;;;;;;;0.60;0.10;;;18.50;99.90;;;;;;5012179;28;20474;-78
2023/07/28 05:52:59;;;;;;;0.60;0.30;;;18.60;99.90;;;;;;5012569;28;20529;-79
2023/07/28 05:55:27;;;;;;;0.60;0.30;;;18.70;99.90;;;;;;5009519;28;20447;-78
2023/07/28 05:57:58;;;;;;;0.60;0.20;;;;;;;;;;5012130;28;20436;-78
2023/07/28 06:00:28;;;;;;;0.70;0.40;;;18.60;99.90;;;;;;5014031;28;20827;-78
2023/07/28 06:02:56;;;;;;;0.60;0.10;;;;;;;;;;5011945;28;20784;-79
2023/07/28 06:05:24;;;;;;;0.93;0.70;;;18.70;99.90;;;;;;5013245;28;20447;-79
2023/07/28 06:07:52;;;;;;;0.90;0.60;;;18.70;99.90;;;;;;5012586;28;20490;-79
2023/07/28 06:10:20;;;;;;;0.60;0.20;;;18.80;99.90;;;;;;5012906;28;20481;-79
2023/07/28 06:12:48;;;;;;;1.17;0.50;;;18.80;99.90;;;;;;5015297;28;20913;-78
2023/07/28 06:15:15;;;;;;;0.60;0.17;;;18.90;99.90;;;;;;5016806;28;20812;-78
2023/07/28 06:17:44;;;;;;;0.60;0.13;;;18.90;99.90;;;;;;5017814;28;20465;-78
2023/07/28 06:20:13;;;;;;;0.60;0.10;;;19.00;99.90;;;;;;5025532;28;20497;-78
2023/07/28 06:22:41;;;;;;;0.60;0.13;;;19.20;99.90;;;;;;5019537;28;20524;-77
2023/07/28 06:25:09;;;;;;;1.03;0.30;;;19.10;94.10;;;;;;5023143;28;20449;-77
2023/07/28 06:27:38;;;;;;;0.60;0.20;;;19.20;87.50;;;;;;5011644;28;20505;-77
2023/07/28 06:30:07;;;;;;;0.60;0.20;;;19.20;52.30;;;;;;5014174;28;20482;-78
2023/07/28 06:32:35;;;;;;;1.33;0.87;;;19.30;41.70;;;;;;5030851;28;20457;-77
2023/07/28 06:35:07;;;;;;;0.60;0.17;;;19.30;1.00;;;;;;5011646;28;20494;-77
2023/07/28 06:37:36;;;;;;;0.60;0.10;;;19.40;1.00;;;;;;5010729;28;20879;-77
2023/07/28 06:40:07;;;;;;;0.60;0.10;;;19.40;1.00;;;;;;5011078;28;20546;-78
2023/07/28 06:42:36;;;;;;;0.60;0.20;;;19.40;1.00;;;;;;5032657;28;21026;-77
2023/07/28 06:45:05;;;;;;;0.60;0.10;;;;;;;;;;5032150;28;20534;-78
2023/07/28 06:47:33;;;;;;;0.60;0.20;;;19.50;1.00;;;;;;5025013;28;20863;-77
2023/07/28 06:50:01;;;;;;;0.60;0.10;;;19.50;1.00;;;;;;5012635;28;20495;-78
2023/07/28 06:52:30;;;;;;;0.60;0.20;;;19.60;1.00;;;;;;5011614;28;20527;-73
2023/07/28 06:54:58;;;;;;;0.60;0.10;;;19.60;1.00;;;;;;5011586;28;20828;-73
2023/07/28 06:57:26;;;;;;;2.60;2.00;;;19.60;1.00;;;;;;5010701;28;20440;-72
2023/07/28 06:59:53;;;;;;;0.60;0.20;;;19.70;1.00;;;;;;5009589;28;20608;-71
2023/07/28 07:02:21;;;;;;;0.87;0.53;;;19.70;1.00;;;;;;5009895;28;20448;-72
2023/07/28 07:04:49;;;;;;;0.60;0.10;;;19.80;1.00;;;;;;5011001;28;21002;-71
2023/07/28 07:07:17;;;;;;;0.77;0.23;;;19.80;1.00;;;;;;5010906;28;20562;-68
2023/07/28 07:09:46;;;;;;;0.70;0.30;;;19.70;1.00;;;;;;5010816;28;21035;-70
2023/07/28 07:12:15;;;;;;;0.73;0.33;;;19.70;1.00;;;;;;5011471;28;20530;-69
2023/07/28 07:14:44;;;;;;;1.07;1.07;;;;;;;;;;5011049;28;20532;-68
2023/07/28 07:17:12;;;;;;;0.60;0.10;;;19.70;1.00;;;;;;5011541;28;20947;-69
2023/07/28 07:19:40;;;;;;;0.60;0.20;;;19.70;1.00;;;;;;5011138;28;20462;-69
2023/07/28 07:22:08;;;;;;;0.60;0.20;;;;;;;;;;5011180;28;20451;-69
2023/07/28 07:24:36;;;;;;;0.60;0.10;;;19.80;1.00;;;;;;5011015;28;20929;-70
2023/07/28 07:27:06;;;;;;;0.60;0.10;;;19.90;1.00;;;;;;5010303;28;20472;-71
2023/07/28 07:29:34;;;;;;;0.70;0.37;;;;;;;;;;5014067;28;20493;-69
2023/07/28 07:32:02;;;;;;;0.77;0.30;;;19.90;1.00;;;;;;5014156;28;20552;-69
2023/07/28 07:34:30;;;;;;;0.60;0.20;;;19.90;1.00;;;;;;5014383;28;20883;-68
2023/07/28 07:36:58;;;;;;;1.93;0.33;;;20.00;1.00;;;;;;5014086;28;20451;-70
2023/07/28 07:39:26;;;;;;;0.60;0.10;;;19.90;1.00;;;;;;5014669;28;20816;-70
2023/07/28 07:41:54;;;;;;;0.60;0.10;;;20.00;1.00;;;;;;5014267;28;20689;-70
2023/07/28 07:44:23;;;;;;;0.60;0.10;;;20.00;1.00;;;;;;5014341;28;20470;-70
2023/07/28 07:46:51;;;;;;;0.70;0.40;;;20.10;1.00;;;;;;5014679;28;20434;-70
2023/07/28 07:49:19;;;;;;;0.70;0.20;;;20.10;1.00;;;;;;5014452;28;20562;-70
2023/07/28 07:51:47;;;;;;;0.73;0.30;;;20.10;1.00;;;;;;5014323;28;20554;-70
2023/07/28 07:54:18;;;;;;;0.60;0.10;;;20.20;1.00;;;;;;5014091;28;20452;-73
2023/07/28 07:56:46;;;;;;;0.70;0.43;;;20.10;1.00;;;;;;5012957;28;20434;-71
2023/07/28 07:59:14;;;;;;;0.80;0.40;;;20.00;1.00;;;;;;5011847;28;20440;-73
2023/07/28 08:01:44;;;;;;;0.70;0.40;;;20.10;1.00;;;;;;5012625;28;20871;-71
2023/07/28 08:04:13;;;;;;;0.60;0.20;;;20.30;1.00;;;;;;5009799;28;20440;-72
2023/07/28 08:06:40;;;;;;;0.60;0.10;;;20.40;1.00;;;;;;5012787;28;20474;-71
2023/07/28 08:09:09;;;;;;;0.60;0.20;;;20.50;1.00;;;;;;5012524;28;20483;-71
2023/07/28 08:11:37;;;;;;;0.60;0.20;;;20.60;1.00;;;;;;5013791;28;20547;-72
2023/07/28 08:14:05;;;;;;;0.60;0.10;;;20.50;1.00;;;;;;5013531;28;20883;-72
2023/07/28 08:16:33;;;;;;;1.37;1.17;;;20.50;1.00;;;;;;5013512;28;20452;-72
2023/07/28 08:19:02;;;;;;;0.60;0.30;;;20.50;1.00;;;;;;5013628;28;20496;-72
2023/07/28 08:21:31;;;;;;;0.60;0.10;;;20.60;1.00;;;;;;5013476;28;20553;-72
2023/07/28 08:23:59;;;;;;;0.60;0.20;;;20.70;1.00;;;;;;5013537;28;20533;-71
2023/07/28 08:26:27;;;;;;;0.60;0.10;;;;;;;;;;5013614;28;20491;-71
2023/07/28 08:28:55;;;;;;;0.60;0.20;;;20.80;1.00;;;;;;5013043;28;20570;-71
2023/07/28 08:31:23;;;;;;;0.60;0.20;;;20.70;99.90;;;;;;5012729;28;20464;-71
2023/07/28 08:33:51;;;;;;;1.77;0.70;;;20.80;99.90;;;;;;5012570;28;20539;-71
2023/07/28 08:36:20;;;;;;;4.23;0.60;;;20.90;99.90;;;;;;5012701;28;20816;-71
2023/07/28 08:38:48;;;;;;;0.60;0.10;;;20.80;99.90;;;;;;5011431;28;20450;-71
2023/07/28 08:41:16;;;;;;;0.60;0.10;;;20.90;99.90;;;;;;5012892;28;20461;-72
2023/07/28 08:43:45;;;;;;;0.70;0.20;;;;;;;;;;5013528;28;20483;-72
2023/07/28 08:46:13;;;;;;;1.40;0.40;;;21.00;99.90;;;;;;5012783;28;20448;-72
2023/07/28 08:48:41;;;;;;;0.70;0.30;;;20.90;99.90;;;;;;5012946;28;20970;-70
2023/07/28 08:51:11;;;;;;;0.60;0.20;;;20.90;99.90;;;;;;5012883;28;20965;-71
2023/07/28 08:53:41;;;;;;;0.80;0.40;;;21.00;99.90;;;;;;5012379;28;20448;-72
2023/07/28 08:56:09;;;;;;;0.60;0.20;;;21.10;99.90;;;;;;5011945;28;20441;-71
2023/07/28 08:58:37;;;;;;;1.30;0.40;;;21.00;99.90;;;;;;5012035;28;20524;-70
2023/07/28 09:01:05;;;;;;;1.47;0.73;;;21.00;99.90;;;;;;5011823;28;20467;-72
2023/07/28 09:03:37;;;;;;;0.60;0.10;;;21.10;99.90;;;;;;5011610;28;20949;-72
2023/07/28 09:06:08;;;;;;;0.60;0.10;;;;;;;;;;5012135;28;20437;-72
2023/07/28 09:08:37;;;;;;;0.80;0.33;;;21.40;99.90;;;;;;5010338;28;20477;-70
2023/07/28 09:11:06;;;;;;;0.60;0.20;;;21.40;99.90;;;;;;5012694;28;20468;-71
2023/07/28 09:13:41;;;;;;;0.60;0.10;;;21.40;99.90;;;;;;5012228;28;20454;-70
2023/07/28 09:16:17;;;;;;;0.60;0.20;;;21.40;99.90;;;;;;5012791;28;20810;-71
2023/07/28 09:18:45;;;;;;;0.60;0.23;;;21.30;99.90;;;;;;5012887;28;20956;-71
2023/07/28 09:21:18;;;;;;;0.60;0.10;;;21.40;99.90;;;;;;5013274;28;20468;-70
2023/07/28 09:23:46;;;;;;;5.13;4.40;;;;;;;;;;5012054;28;20557;-72
2023/07/28 09:26:17;;;;;;;0.60;0.17;;;21.50;99.90;;;;;;5012170;28;20447;-72
2023/07/28 09:28:45;;;;;;;0.90;0.20;;;21.60;99.90;;;;;;5011763;28;21023;-72
2023/07/28 09:31:14;;;;;;;0.60;0.13;;;21.60;99.90;;;;;;5009569;28;20464;-71
2023/07/28 09:33:46;;;;;;;0.60;0.10;;;21.80;99.90;;;;;;5011596;28;20445;-72
2023/07/28 09:36:16;;;;;;;0.60;0.20;;;21.90;99.90;;;;;;5009480;28;20441;-71
2023/07/28 09:38:44;;;;;;;0.60;0.10;;;21.90;99.90;;;;;;5011737;28;20962;-72
2023/07/28 09:41:12;;;;;;;0.60;0.10;;;22.00;99.90;;;;;;5011788;28;20478;-72
2023/07/28 09:43:42;;;;;;;0.60;0.20;;;22.20;99.90;;;;;;5011804;28;20530;-71
2023/07/28 09:46:11;;;;;;;0.60;0.10;;;22.20;99.90;;;;;;5012350;28;20903;-71
2023/07/28 09:48:45;;;;;;;0.60;0.10;;;22.20;99.90;;;;;;5010936;28;20485;-71
2023/07/28 09:51:19;;;;;;;0.60;0.20;;;22.30;99.90;;;;;;5010000;28;20471;-70
2023/07/28 09:53:50;;;;;;;0.60;0.20;;;22.20;99.90;;;;;;5008641;28;20945;-72
2023/07/28 09:56:23;;;;;;;0.60;0.20;;;22.20;99.90;;;;;;5011625;28;20536;-71
2023/07/28 09:58:53;;;;;;;0.60;0.10;;;22.20;99.90;;;;;;5009693;28;20441;-70
2023/07/28 10:01:22;;;;;;;0.60;0.20;;;22.30;99.90;;;;;;5011377;28;20462;-71
2023/07/28 10:03:51;;;;;;;0.60;0.10;;;22.20;99.90;;;;;;5009046;28;20436;-72
2023/07/28 10:06:22;;;;;;;0.93;0.30;;;22.30;99.90;;;;;;5011685;28;20520;-70
2023/07/28 10:08:50;;;;;;;0.60;0.30;;;22.20;99.90;;;;;;5012584;28;20476;-70
2023/07/28 10:11:19;;;;;;;0.70;0.30;;;22.30;99.90;;;;;;5010931;28;20460;-71
2023/07/28 10:13:47;;;;;;;0.60;0.10;;;22.40;99.90;;;;;;5010402;28;20933;-71
2023/07/28 10:16:17;;;;;;;0.60;0.10;;;;;;;;;;5012090;28;20450;-70
2023/07/28 10:18:54;;;;;;;0.60;0.10;;;22.70;99.90;;;;;;5013483;28;20839;-71
2023/07/28 10:21:23;;;;;;;0.60;0.20;;;;;;;;;;5011722;28;20460;-72
2023/07/28 10:23:56;;;;;;;0.60;0.10;;;22.90;99.90;;;;;;5011376;28;20469;-70
2023/07/28 10:26:36;;;;;;;0.60;0.20;;;22.90;99.90;;;;;;5011265;28;20939;-70
2023/07/28 10:29:13;;;;;;;0.60;0.10;;;22.90;99.90;;;;;;5008612;28;20488;-71
2023/07/28 10:31:52;;;;;;;0.93;0.43;;;23.00;99.90;;;;;;5011137;28;20816;-71
2023/07/28 10:34:22;;;;;;;0.70;0.20;;;22.90;99.90;;;;;;5010741;28;20454;-72
2023/07/28 10:36:58;;;;;;;0.70;0.30;;;22.90;99.90;;;;;;5011115;28;20471;-71
2023/07/28 10:39:27;;;;;;;0.60;0.20;;;;;;;;;;5011399;28;20445;-70
2023/07/28 10:42:04;;;;;;;0.60;0.10;;;23.00;99.90;;;;;;5010912;28;21049;-71
2023/07/28 10:44:33;;;;;;;0.80;0.30;;;23.00;99.90;;;;;;5008466;28;20534;-72
2023/07/28 10:47:02;;;;;;;0.60;0.20;;;23.00;99.90;;;;;;5010417;28;20504;-72
2023/07/28 10:49:30;;;;;;;0.63;0.23;;;23.10;99.90;;;;;;5009877;28;20537;-72
2023/07/28 10:51:59;;;;;;;0.70;0.30;;;23.10;99.90;;;;;;5007697;28;20462;-72
2023/07/28 10:54:27;;;;;;;0.60;0.10;;;23.10;99.90;;;;;;5010687;28;20450;-72
2023/07/28 10:56:55;;;;;;;0.60;0.20;;;;;;;;;;5010571;28;20529;-73
2023/07/28 10:59:23;;;;;;;0.60;0.10;;;;;;;;;;5010943;28;20888;-72
2023/07/28 11:01:52;;;;;;;0.60;0.10;;;;;;;;;;5011110;28;20500;-71
2023/07/28 11:04:23;;;;;;;0.60;0.10;;;23.40;99.90;;;;;;5015213;28;20442;-71
2023/07/28 11:06:52;;;;;;;0.60;0.20;;;26.10;99.90;;;;;;5012949;28;20445;-70
2023/07/28 11:09:24;;;;;;;0.60;0.30;;;23.20;99.90;;;;;;5014942;28;20569;-71
2023/07/28 11:11:53;;;;;;;0.60;0.20;;;23.10;99.90;;;;;;5015010;28;20569;-70
2023/07/28 11:14:21;;;;;;;0.60;0.20;;;23.10;99.90;;;;;;5014956;28;20486;-71
2023/07/28 11:16:49;;;;;;;0.60;0.10;;;23.10;99.90;;;;;;5018038;28;20487;-78
2023/07/28 11:19:24;;;;;;;0.60;0.10;;;;;;;;;;5031324;28;20816;-78
2023/07/28 11:21:58;;;;;;;0.60;0.20;;;23.20;99.90;;;;;;5030934;28;20466;-79
2023/07/28 11:24:26;;;;;;;0.60;0.20;;;23.20;99.90;;;;;;5033904;28;20466;-78
2023/07/28 11:26:55;;;;;;;0.60;0.10;;;23.30;99.90;;;;;;5023849;28;20454;-78
2023/07/28 11:29:23;;;;;;;1.03;0.63;;;;;;;;;;5017238;28;20576;-78
2023/07/28 11:31:50;;;;;;;0.60;0.10;;;;;;;;;;5015674;28;20490;-76
2023/07/28 11:34:19;;;;;;;0.60;0.20;;;23.60;99.90;;;;;;5014207;28;20471;-76
2023/07/28 11:36:47;;;;;;;0.70;0.20;;;23.50;99.90;;;;;;5014672;28;20453;-75
2023/07/28 11:39:17;;;;;;;0.60;0.20;;;23.50;99.90;;;;;;5013798;28;20453;-75
2023/07/28 11:41:47;;;;;;;0.80;0.40;;;23.40;99.90;;;;;;5015157;28;20470;-76
2023/07/28 11:44:17;;;;;;;0.60;0.20;;;23.40;99.90;;;;;;5015257;28;20543;-75
2023/07/28 11:46:45;;;;;;;0.60;0.20;;;;;;;;;;5015646;28;20537;-76
2023/07/28 11:49:15;;;;;;;0.60;0.20;;;23.30;99.90;;;;;;5016131;28;20862;-77
2023/07/28 11:51:46;;;;;;;0.60;0.10;;;23.30;99.90;;;;;;5015534;28;20456;-77
2023/07/28 11:54:16;;;;;;;0.60;0.10;;;23.30;99.90;;;;;;5015070;28;20442;-76
2023/07/28 11:56:46;;;;;;;0.60;0.20;;;23.20;99.90;;;;;;5016407;28;20441;-76
2023/07/28 11:59:16;;;;;;;0.87;0.60;;;23.30;99.90;;;;;;5015077;28;20468;-75
2023/07/28 12:01:55;;;;;;;0.80;0.57;;;23.40;99.90;;;;;;5015137;28;20986;-75
2023/07/28 12:04:28;;;;;;;0.60;0.10;;;23.40;99.90;;;;;;5015173;28;21314;-75
2023/07/28 12:07:06;;;;;;;0.60;0.10;;;23.40;99.90;;;;;;5016168;28;20530;-77
2023/07/28 12:09:51;;;;;;;0.60;0.10;;;23.40;99.90;;;;;;5013944;28;20949;-76
2023/07/28 12:12:33;;;;;;;0.60;0.20;;;23.30;99.90;;;;;;5014664;28;20442;-76
2023/07/28 12:15:20;;;;;;;0.60;0.10;;;23.20;99.90;;;;;;5015636;28;20943;-76
2023/07/28 12:18:09;;;;;;;0.80;0.57;;;23.20;99.90;;;;;;5021691;28;20466;-76
2023/07/28 12:20:41;;;;;;;0.60;0.10;;;23.10;99.90;;;;;;5028005;28;20796;-77
2023/07/28 12:23:09;;;;;;;0.60;0.30;;;23.00;99.90;;;;;;5016795;28;20472;-76
2023/07/28 12:25:42;;;;;;;0.67;0.33;;;22.80;99.90;;;;;;5016096;28;20508;-76
2023/07/28 12:28:10;;;;;;;0.60;0.10;;;22.80;99.90;;;;;;5016145;28;20839;-76
2023/07/28 12:30:41;;;;;;;1.00;0.50;;;;;;;;;;5015233;28;20508;-74
2023/07/28 12:33:09;;;;;;;0.60;0.20;;;;;;;;;;5017589;28;20438;-76
2023/07/28 12:35:48;;;;;;;0.60;0.20;;;22.40;99.90;;;;;;5023719;28;20445;-76
2023/07/28 12:38:18;;;;;;;0.60;0.17;;;22.40;99.90;;;;;;5024392;28;20477;-75
2023/07/28 12:40:52;;;;;;;1.00;0.70;;;;;;;;;;5019738;28;20569;-75
2023/07/28 12:43:24;;;;;;;0.60;0.10;;;;;;;;;;5017579;28;20537;-76
2023/07/28 12:45:55;;;;;;;0.60;0.20;;;;;;;;;;5014554;28;20528;-76
2023/07/28 12:48:26;;;;;;;0.90;0.43;;;22.80;99.90;;;;;;5013100;28;20533;-76
2023/07/28 12:50:54;;;;;;;1.23;0.73;;;22.80;99.90;;;;;;5013967;28;20480;-76
2023/07/28 12:53:25;;;;;;;0.80;0.53;;;22.90;99.90;;;;;;5013851;28;20509;-75
2023/07/28 12:55:55;;;;;;;0.80;0.20;;;22.90;99.90;;;;;;5011636;28;20450;-76
2023/07/28 12:58:26;;;;;;;0.80;0.40;;;22.90;99.90;;;;;;5014351;28;20516;-75
2023/07/28 13:00:59;;;;;;;0.60;0.17;;;;;;;;;;5014267;28;20549;-76
2023/07/28 13:03:30;;;;;;;1.57;1.23;;;22.90;99.90;;;;;;5013198;28;20467;-77
2023/07/28 13:05:59;;;;;;;1.67;0.77;;;;;;;;;;5014799;28;20568;-78
2023/07/28 13:08:27;;;;;;;1.90;1.50;;;;;;;;;;5012080;28;20497;-77
2023/07/28 13:10:59;;;;;;;0.60;0.20;;;23.00;99.90;;;;;;5014164;28;20990;-76
2023/07/28 13:13:30;;;;;;;1.60;1.40;;;23.10;99.90;;;;;;5013422;28;20587;-76
2023/07/28 13:15:58;;;;;;;0.80;0.50;;;;;;;;;;5013856;28;20768;-77
2023/07/28 13:18:29;;;;;;;0.60;0.20;;;;;;;;;;5014300;28;20522;-78
2023/07/28 13:20:57;;;;;;;1.43;0.83;;;;;;;;;;5014565;28;21050;-77
2023/07/28 13:23:25;;;;;;;7.00;0.40;;;;;;;;;;5014063;28;20450;-77
2023/07/28 13:25:54;;;;;;;0.60;0.10;;;23.20;99.90;;;;;;5013478;28;20451;-77
2023/07/28 13:28:23;;;;;;;0.60;0.20;;;23.20;99.90;;;;;;5014186;28;20472;-77
2023/07/28 13:30:51;;;;;;;0.70;0.33;;;23.10;99.90;;;;;;5013817;28;20491;-77
2023/07/28 13:33:19;;;;;;;0.63;0.23;;;23.10;99.90;;;;;;5013401;28;20875;-76
2023/07/28 13:35:48;;;;;;;1.10;0.77;;;;;;;;;;5013667;28;20458;-77
2023/07/28 13:38:16;;;;;;;0.60;0.20;;;22.70;99.90;;;;;;5013668;28;20477;-77
2023/07/28 13:40:43;;;;;;;0.60;0.20;;;22.70;99.90;;;;;;5014064;28;20519;-78
2023/07/28 13:43:11;;;;;;;0.60;0.20;;;22.70;99.90;;;;;;5013242;28;20455;-78
2023/07/28 13:45:45;;;;;;;0.60;0.10;;;22.70;99.90;;;;;;5013394;28;20532;-77
2023/07/28 13:48:13;;;;;;;0.77;0.30;;;22.60;99.90;;;;;;5013366;28;20469;-76
2023/07/28 13:50:44;;;;;;;0.60;0.20;;;22.50;99.90;;;;;;5013374;28;20486;-77
2023/07/28 13:53:23;;;;;;;0.60;0.10;;;;;;;;;;5012507;28;20487;-77
2023/07/28 13:55:54;;;;;;;0.60;0.10;;;22.50;99.90;;;;;;5012838;28;20935;-77
2023/07/28 13:58:25;;;;;;;0.60;0.20;;;22.50;99.90;;;;;;5012913;28;20455;-77
2023/07/28 14:00:54;;;;;;;0.60;0.20;;;22.40;99.90;;;;;;5013540;28;20486;-77
2023/07/28 14:03:23;;;;;;;0.60;0.10;;;22.50;99.90;;;;;;5013595;28;20456;-77
2023/07/28 14:05:51;;;;;;;0.60;0.20;;;22.60;99.90;;;;;;5013785;28;20446;-77
2023/07/28 14:08:19;;;;;;;0.60;0.20;;;22.60;99.90;;;;;;5015652;28;20528;-77
2023/07/28 14:10:47;;;;;;;0.70;0.40;;;22.40;99.90;;;;;;5013857;28;20873;-78
2023/07/28 14:13:15;;;;;;;0.60;0.10;;;22.20;99.90;;;;;;5012381;28;20450;-77
2023/07/28 14:15:45;;;;;;;0.60;0.30;;;;;;;;;;5013831;28;20453;-79
2023/07/28 14:18:14;;;;;;;0.70;0.30;;;22.20;99.90;;;;;;5013999;28;20525;-78
2023/07/28 14:20:42;;;;;;;0.70;0.20;;;22.30;99.90;;;;;;5013524;28;20556;-77
2023/07/28 14:23:22;;;;;;;0.60;0.10;;;22.30;99.90;;;;;;5013677;28;20853;-78
2023/07/28 14:25:51;;;;;;;0.60;0.10;;;;;;;;;;5001308;28;20635;-79
2023/07/28 14:28:19;;;;;;;0.70;0.30;;;;;;;;;;4992797;28;20548;-77
2023/07/28 14:30:48;;;;;;;1.27;0.50;;;22.50;99.90;;;;;;4999291;28;20486;-77
2023/07/28 14:33:18;;;;;;;0.60;0.20;;;22.40;99.90;;;;;;5012385;28;20455;-77
2023/07/28 14:35:48;;;;;;;0.60;0.20;;;22.40;99.90;;;;;;5013983;28;20536;-77
2023/07/28 14:38:17;;;;;;;2.30;0.77;;;22.40;99.90;;;;;;5013806;28;20457;-77
2023/07/28 14:40:48;;;;;;;0.60;0.10;;;22.30;99.90;;;;;;5013757;28;20616;-77
2023/07/28 14:43:17;;;;;;;0.70;0.53;;;22.40;99.90;;;;;;5014860;28;20961;-77
2023/07/28 14:45:45;;;;;;;0.60;0.10;;;;;;;;;;5014245;28;20600;-76
2023/07/28 14:48:13;;;;;;;0.60;0.20;;;;;;;;;;5014472;28;20450;-76
2023/07/28 14:50:43;;;;;;;0.60;0.10;;;22.70;99.90;;;;;;5012900;28;20485;-77
2023/07/28 14:53:34;;;;;;;0.60;0.20;;;22.20;99.90;;;;;;5012612;28;20531;-77
2023/07/28 14:56:04;;;;;;;0.60;0.10;;;22.00;99.90;;;;;;5015610;28;20453;-77
2023/07/28 14:58:32;;;;;;;0.60;0.10;;;22.00;99.90;;;;;;5027022;28;20481;-77
2023/07/28 15:01:00;;;;;;;0.60;0.20;;;21.80;99.90;;;;;;5027381;28;20467;-77
2023/07/28 15:03:30;;;;;;;0.60;0.20;;;21.70;1.00;;;;;;5026922;28;20458;-76
2023/07/28 15:06:01;;;;;;;0.60;0.20;;;21.50;1.00;;;;;;5027269;28;20508;-77
2023/07/28 15:08:29;;;;;;;0.60;0.10;;;21.40;1.00;;;;;;5019193;28;20483;-76
2023/07/28 15:10:58;;;;;;;0.60;0.10;;;21.40;1.00;;;;;;5012364;28;20512;-77
2023/07/28 15:13:26;;;;;;;0.60;0.10;;;;;;;;;;5013022;28;21083;-77
2023/07/28 15:15:55;;;;;;;0.60;0.10;;;;;;;;;;5013476;28;20452;-77
2023/07/28 15:18:23;;;;;;;0.60;0.10;;;;;;;;;;5013303;28;20495;-77
2023/07/28 15:20:52;;;;;;;0.60;0.10;;;21.80;1.00;;;;;;5012692;28;20552;-76
2023/07/28 15:23:21;;;;;;;1.37;1.27;;;;;;;;;;5013414;28;20519;-78
2023/07/28 15:25:52;;;;;;;0.60;0.10;;;22.00;1.00;;;;;;5013185;28;20449;-77
2023/07/28 15:28:20;;;;;;;0.60;0.10;;;22.20;1.00;;;;;;5012475;28;20445;-77
2023/07/28 15:30:50;;;;;;;0.60;0.10;;;22.30;1.00;;;;;;5017389;28;20551;-77
2023/07/28 15:39:54;;;;;;;0.60;0.10;;;22.60;1.00;;;;;;5047767;28;21013;-79
2023/07/28 15:42:22;;;;;;;0.60;0.20;;;22.60;1.00;;;;;;5043532;28;20551;-79
2023/07/28 15:44:50;;;;;;;0.60;0.20;;;22.50;99.90;;;;;;5037595;28;20491;-79
2023/07/28 15:47:18;;;;;;;1.53;0.97;;;;;;;;;;5041638;28;21007;-79
2023/07/28 15:49:46;;;;;;;0.60;0.10;;;22.30;99.90;;;;;;5045663;28;20448;-79
2023/07/28 15:52:14;;;;;;;0.90;0.60;;;;;;;;;;5042848;28;20477;-80
2023/07/28 15:54:43;;;;;;;0.80;0.33;;;;;;;;;;5043549;28;20445;-80
2023/07/28 15:57:12;;;;;;;0.70;0.30;;;22.20;99.90;;;;;;5045372;28;20467;-80
2023/07/28 15:59:41;;;;;;;0.60;0.10;;;;;;;;;;5041706;28;20477;-78
2023/07/28 16:02:09;;;;;;;1.53;0.70;;;22.40;99.90;;;;;;5041530;28;20531;-79
2023/07/28 16:04:37;;;;;;;1.57;0.63;;;;;;;;;;5040852;28;20491;-78
2023/07/28 16:07:06;;;;;;;0.60;0.20;;;22.40;99.90;;;;;;5046091;28;20472;-78
2023/07/28 16:09:34;;;;;;;0.60;0.10;;;;;;;;;;5034541;28;20453;-77
2023/07/28 16:12:03;;;;;;;0.60;0.20;;;;;;;;;;5034588;28;21016;-78
2023/07/28 16:14:32;;;;;;;0.60;0.10;;;22.80;99.90;;;;;;5036469;28;20445;-79
2023/07/28 16:17:00;;;;;;;0.70;0.23;;;;;;;;;;5040674;28;20471;-78
2023/07/28 16:19:31;;;;;;;0.60;0.20;;;;;;;;;;5056236;28;20438;-78
2023/07/28 16:21:59;;;;;;;0.60;0.20;;;23.10;99.90;;;;;;5057113;28;20487;-78
2023/07/28 16:24:27;;;;;;;0.80;0.43;;;22.80;99.90;;;;;;5055815;28;20452;-79
2023/07/28 16:26:55;;;;;;;1.50;1.30;;;22.80;99.90;;;;;;5056301;28;20554;-78
2023/07/28 16:29:24;;;;;;;0.60;0.20;;;;;;;;;;5057583;28;20521;-79
2023/07/28 16:31:53;;;;;;;0.70;0.30;;;22.70;99.90;;;;;;5058152;28;20955;-80
2023/07/28 16:34:22;;;;;;;0.60;0.20;;;;;;;;;;5058281;28;20954;-79
2023/07/28 16:36:50;;;;;;;1.03;0.43;;;22.90;99.90;;;;;;5060564;28;20471;-80
2023/07/28 16:39:18;;;;;;;0.87;0.30;;;22.90;99.90;;;;;;5057483;28;20455;-80
2023/07/28 16:41:49;;;;;;;0.73;0.30;;;22.70;99.90;;;;;;5059894;28;20550;-78
2023/07/28 16:44:16;;;;;;;1.43;0.43;;;22.60;99.90;;;;;;5057601;28;20478;-78
2023/07/28 16:46:46;;;;;;;0.70;0.40;;;22.60;99.90;;;;;;5058146;28;20498;-78
2023/07/28 16:49:15;;;;;;;0.60;0.10;;;22.70;99.90;;;;;;5058962;28;20827;-78
2023/07/28 16:51:43;;;;;;;1.30;0.50;;;;;;;;;;5057119;28;20448;-79
2023/07/28 16:54:11;;;;;;;0.60;0.20;;;;;;;;;;5057291;28;20480;-80
2023/07/28 16:56:41;;;;;;;0.90;0.50;;;;;;;;;;5050217;28;21011;-79
2023/07/28 16:59:09;;;;;;;0.60;0.20;;;22.40;99.90;;;;;;5046974;28;20453;-79
2023/07/28 17:01:38;;;;;;;0.60;0.10;;;;;;;;;;5045014;28;20437;-78
2023/07/28 17:04:06;;;;;;;0.60;0.33;;;22.50;99.90;;;;;;5044125;28;20436;-79
2023/07/28 17:06:36;;;;;;;0.60;0.17;;;22.50;99.90;;;;;;5046950;28;21030;-78
2023/07/28 17:09:05;;;;;;;0.60;0.10;;;;;;;;;;5055858;28;20569;-79
2023/07/28 17:11:33;;;;;;;0.60;0.20;;;;;;;;;;5057485;28;20447;-79
2023/07/28 17:14:02;;;;;;;0.67;0.30;;;22.50;99.90;;;;;;5058063;28;20585;-77
2023/07/28 17:16:29;;;;;;;0.93;0.70;;;22.60;99.90;;;;;;5061774;28;20924;-76
2023/07/28 17:18:58;;;;;;;0.60;0.17;;;;;;;;;;5072680;28;20949;-77
2023/07/28 17:21:26;;;;;;;0.60;0.20;;;;;;;;;;5065197;28;20520;-77
2023/07/28 17:23:55;;;;;;;0.90;0.30;;;22.50;99.90;;;;;;5063739;28;20443;-78
2023/07/28 17:26:23;;;;;;;0.70;0.33;;;;;;;;;;5059588;28;20541;-78
2023/07/28 17:28:51;;;;;;;0.60;0.10;;;22.40;99.90;;;;;;5058862;28;20445;-78